Time;durP1;ratioP1;P1;durP2;ratioP2;P2;SDS_P1;SDS_P2;PMS_P1;PMS_P2;Temp;Humidity;BMP_temperature;BMP_pressure;BME280_temperature;BME280_humidity;BME280_pressure;Samples;Min_cycle;Max_cycle;Signal;HPM_P1;HPM_P2
2022/08/24 00:02:42;;;;;;;13.50;7.10;;;;;;;18.42;79.50;99982.73;213654;1278;141926;-73
2022/08/24 00:07:50;;;;;;;9.10;7.70;;;;;;;18.46;80.14;99979.96;214899;1278;141941;-74
2022/08/24 00:12:54;;;;;;;11.80;7.40;;;;;;;18.58;80.38;99976.51;214515;1277;140654;-71
2022/08/24 00:17:58;;;;;;;9.10;7.60;;;;;;;18.71;80.50;99968.69;213962;1277;144541;-68
2022/08/24 00:23:02;;;;;;;8.60;7.60;;;;;;;18.82;80.57;99964.92;214606;1277;143522;-69
2022/08/24 00:28:06;;;;;;;10.00;8.20;;;;;;;18.84;80.67;99979.05;214167;1277;139880;-70
2022/08/24 00:33:10;;;;;;;15.00;8.20;;;;;;;18.84;80.70;99977.61;215500;1277;140992;-69
2022/08/24 00:38:13;;;;;;;10.70;8.80;;;;;;;18.85;80.77;99983.70;215362;1277;142222;-69
2022/08/24 00:43:24;;;;;;;10.60;9.50;;;;;;;18.90;81.02;99988.52;215101;1277;142951;-71
2022/08/24 00:48:31;;;;;;;12.50;8.80;;;;;;;18.94;81.07;99980.55;215444;1278;141995;-70
2022/08/24 00:53:38;;;;;;;12.30;10.40;;;;;;;19.04;81.18;99977.46;215591;1277;143914;-70
2022/08/24 00:58:45;;;;;;;14.00;10.00;;;;;;;19.10;81.06;99973.42;213503;1277;140387;-73
2022/08/24 01:03:59;;;;;;;16.10;10.90;;;;;;;19.03;80.57;99973.20;213890;1278;140933;-71
2022/08/24 01:09:07;;;;;;;10.50;9.40;;;;;;;18.90;80.90;99978.69;217871;1265;140021;-69
2022/08/24 01:14:13;;;;;;;15.60;10.80;;;;;;;18.90;81.04;99983.83;215895;1275;141482;-73
2022/08/24 01:19:47;;;;;;;15.40;9.30;;;;;;;18.94;81.16;99990.77;215827;1276;141176;-71
2022/08/24 01:24:52;;;;;;;14.30;8.70;;;;;;;19.01;81.31;99989.05;215825;1276;140963;-72
2022/08/24 01:30:00;;;;;;;14.20;9.00;;;;;;;19.01;80.91;99995.81;215244;1276;143688;-71
2022/08/24 01:35:06;;;;;;;10.70;8.40;;;;;;;18.96;80.99;99989.59;213448;1276;163659;-74
2022/08/24 01:40:10;;;;;;;11.40;8.80;;;;;;;18.98;81.05;99986.05;213644;1276;143725;-72
2022/08/24 01:45:14;;;;;;;8.80;8.00;;;;;;;18.97;81.14;99985.11;213060;1276;140011;-70
2022/08/24 01:50:20;;;;;;;10.20;9.20;;;;;;;18.93;81.11;99994.44;212816;1277;1460027;-73
2022/08/24 01:55:24;;;;;;;8.60;7.70;;;;;;;18.85;80.87;99992.34;213000;1277;141299;-71
2022/08/24 02:00:30;;;;;;;11.40;7.20;;;;;;;18.70;80.79;99998.44;213469;1276;140471;-74
2022/08/24 02:05:35;;;;;;;7.80;7.20;;;;;;;18.67;80.98;100006.41;213426;1276;144001;-72
2022/08/24 02:10:38;;;;;;;12.90;8.70;;;;;;;18.66;81.01;100013.44;213044;1276;145018;-71
2022/08/24 02:15:42;;;;;;;8.40;7.70;;;;;;;18.60;81.13;100016.13;213642;1277;142248;-71
2022/08/24 02:20:50;;;;;;;12.20;8.70;;;;;;;18.56;81.07;100022.56;213401;1277;143528;-74
2022/08/24 02:25:54;;;;;;;7.50;6.80;;;;;;;18.51;81.04;100021.24;213254;1277;142030;-73
2022/08/24 02:30:57;;;;;;;8.80;7.60;;;;;;;18.37;80.50;100020.14;213230;1277;142079;-73
2022/08/24 02:36:01;;;;;;;7.50;6.80;;;;;;;18.25;80.84;100020.05;213299;1277;144768;-70
2022/08/24 02:41:25;;;;;;;12.00;7.00;;;;;;;18.20;81.04;100014.52;213415;1277;142026;-69
2022/08/24 02:46:30;;;;;;;12.30;7.40;;;;;;;18.19;81.15;100018.94;213299;1277;142498;-70
2022/08/24 02:51:35;;;;;;;8.00;6.90;;;;;;;18.16;80.95;100025.86;213329;1277;142677;-69
2022/08/24 02:56:51;;;;;;;7.50;6.40;;;;;;;17.99;80.97;100029.20;213265;1277;141720;-70
2022/08/24 03:01:56;;;;;;;8.40;6.90;;;;;;;17.96;81.09;100025.70;213711;1277;141332;-70
2022/08/24 03:07:01;;;;;;;7.20;6.60;;;;;;;17.93;81.09;100036.16;215990;1275;142068;-72
2022/08/24 03:12:05;;;;;;;10.00;6.20;;;;;;;17.96;81.27;100036.05;216084;1276;141877;-72
2022/08/24 03:17:10;;;;;;;13.10;9.60;;;;;;;17.88;80.84;100038.23;215986;1276;142342;-72
2022/08/24 03:22:14;;;;;;;9.50;7.00;;;;;;;17.78;80.99;100042.34;214834;1277;141976;-70
2022/08/24 03:27:19;;;;;;;9.10;7.40;;;;;;;17.82;81.31;100044.61;213521;1277;141868;-68
2022/08/24 03:32:23;;;;;;;9.70;8.80;;;;;;;17.76;81.09;100042.79;213445;1276;141277;-70
2022/08/24 03:37:27;;;;;;;7.00;6.00;;;;;;;17.67;81.16;100049.02;213567;1276;141779;-68
2022/08/24 03:42:33;;;;;;;9.30;8.40;;;;;;;17.59;81.28;100057.26;213633;1275;141206;-68
2022/08/24 03:47:37;;;;;;;13.80;9.20;;;;;;;17.52;81.59;100060.29;213166;1277;141165;-68
2022/08/24 03:52:47;;;;;;;7.20;6.60;;;;;;;17.61;82.48;100059.91;213623;1277;140644;-70
2022/08/24 03:57:52;;;;;;;9.80;7.60;;;;;;;17.78;82.67;100063.66;213669;1277;140858;-70
2022/08/24 04:02:56;;;;;;;9.20;8.30;;;;;;;17.95;83.00;100056.82;213404;1277;140759;-69
2022/08/24 04:08:02;;;;;;;17.90;7.50;;;;;;;18.11;83.12;100052.10;213282;1277;141271;-69
2022/08/24 04:13:07;;;;;;;7.90;7.00;;;;;;;18.22;83.11;100051.15;213195;1277;142414;-68
2022/08/24 04:18:11;;;;;;;7.90;6.50;;;;;;;18.29;83.00;100050.52;213279;1277;140436;-68
2022/08/24 04:23:14;;;;;;;9.30;8.20;;;;;;;18.29;82.78;100059.59;213430;1274;141868;-70
2022/08/24 04:28:21;;;;;;;7.50;6.60;;;;;;;18.28;83.21;100061.75;213472;1277;151248;-70
2022/08/24 04:33:25;;;;;;;;;;;;;;;18.40;83.57;100063.14;213408;1277;141059;-70
2022/08/24 04:38:29;;;;;;;8.80;7.70;;;;;;;18.50;83.97;100069.02;213980;1277;128929;-71
2022/08/24 04:43:44;;;;;;;15.10;10.00;;;;;;;18.61;84.04;100061.92;213252;1277;141760;-70
2022/08/24 04:48:53;;;;;;;16.30;12.80;;;;;;;18.74;84.10;100055.02;213272;1275;143834;-71
2022/08/24 04:54:01;;;;;;;17.20;13.70;;;;;;;18.85;84.21;100056.70;213500;1277;232172;-73
2022/08/24 04:59:05;;;;;;;15.30;12.70;;;;;;;18.97;84.32;100055.92;215533;1276;141856;-72
2022/08/24 05:04:10;;;;;;;18.80;13.30;;;;;;;19.10;84.27;100058.42;215668;1277;142649;-69
2022/08/24 05:09:14;;;;;;;14.60;12.20;;;;;;;19.24;84.08;100064.52;215787;1276;141515;-70
2022/08/24 05:14:19;;;;;;;24.40;13.80;;;;;;;19.39;83.99;100078.00;215918;1276;141262;-73
2022/08/24 05:19:28;;;;;;;14.60;12.50;;;;;;;19.50;84.09;100082.85;215718;1276;141538;-72
2022/08/24 05:24:33;;;;;;;15.60;12.90;;;;;;;19.65;83.88;100087.45;214067;1277;143263;-73
2022/08/24 05:29:37;;;;;;;19.10;13.50;;;;;;;19.78;83.82;100093.23;213637;1276;140866;-68
2022/08/24 05:34:43;;;;;;;13.90;12.40;;;;;;;19.91;83.86;100094.81;213212;1277;140880;-70
2022/08/24 05:39:48;;;;;;;12.70;11.30;;;;;;;20.04;83.88;100096.51;213263;1277;140855;-68
2022/08/24 05:44:52;;;;;;;15.40;12.00;;;;;;;20.19;83.78;100097.46;213603;1277;140637;-74
2022/08/24 05:49:56;;;;;;;18.00;12.60;;;;;;;20.29;83.56;100096.64;213411;1277;140956;-73
2022/08/24 05:55:01;;;;;;;17.60;11.30;;;;;;;20.35;83.61;100097.59;213658;1276;141097;-72
2022/08/24 06:00:09;;;;;;;16.70;13.30;;;;;;;20.44;83.46;100098.33;213370;1277;141529;-70
2022/08/24 06:05:13;;;;;;;13.40;11.80;;;;;;;20.61;83.56;100103.77;213358;1277;142877;-72
2022/08/24 06:10:19;;;;;;;13.40;11.50;;;;;;;20.75;83.30;100102.72;213578;1277;141274;-70
2022/08/24 06:15:41;;;;;;;12.70;11.00;;;;;;;20.81;83.03;100103.80;213577;1275;140790;-71
2022/08/24 06:21:15;;;;;;;13.00;11.30;;;;;;;20.87;82.99;100097.61;213391;1277;142162;-71
2022/08/24 06:31:46;;;;;;;13.60;12.10;;;;;;;21.06;82.89;100094.23;213368;1275;141735;-68
2022/08/24 06:36:57;;;;;;;15.40;11.80;;;;;;;21.06;82.76;100095.27;213636;1277;142614;-70
2022/08/24 06:42:01;;;;;;;14.00;12.60;;;;;;;21.08;82.69;100096.41;213225;1277;142635;-69
2022/08/24 06:47:06;;;;;;;12.90;11.50;;;;;;;21.05;82.30;100099.98;215923;1276;141103;-71
2022/08/24 06:52:11;;;;;;;14.50;13.10;;;;;;;21.00;82.34;100102.02;216037;1277;141134;-71
2022/08/24 06:57:15;;;;;;;15.40;13.10;;;;;;;20.98;82.02;100111.59;215784;1276;140704;-72
2022/08/24 07:02:20;;;;;;;17.50;12.50;;;;;;;21.10;82.29;100115.09;215688;1277;142965;-73
2022/08/24 07:07:24;;;;;;;13.90;12.40;;;;;;;21.32;82.33;100119.48;215865;1274;142333;-69
2022/08/24 07:12:28;;;;;;;15.80;13.30;;;;;;;21.53;82.03;100119.39;215897;1277;140869;-72
2022/08/24 07:17:35;;;;;;;15.10;12.70;;;;;;;21.66;81.83;100111.02;215893;1276;141855;-72
2022/08/24 07:22:40;;;;;;;15.30;13.80;;;;;;;21.75;81.34;100111.13;214784;1276;142243;-69
2022/08/24 07:27:44;;;;;;;15.50;13.90;;;;;;;21.74;81.18;100116.83;215310;1277;140370;-71
2022/08/24 07:32:50;;;;;;;17.20;14.20;;;;;;;21.79;81.11;100120.66;214162;1277;141560;-69
2022/08/24 07:37:55;;;;;;;14.90;13.20;;;;;;;21.86;81.12;100129.38;214161;1277;141617;-69
2022/08/24 07:43:00;;;;;;;19.00;14.90;;;;;;;21.88;80.88;100133.52;213305;1277;143020;-69
2022/08/24 07:48:05;;;;;;;17.40;14.00;;;;;;;21.94;80.90;100132.65;213470;1277;141656;-69
2022/08/24 07:53:15;;;;;;;14.20;12.80;;;;;;;22.02;80.80;100136.34;213224;1277;141540;-69
2022/08/24 07:58:23;;;;;;;14.90;13.40;;;;;;;22.09;80.77;100145.78;213165;1277;141684;-68
2022/08/24 08:03:28;;;;;;;15.50;12.90;;;;;;;22.18;80.69;100151.11;213288;1277;222887;-67
2022/08/24 08:08:34;;;;;;;13.10;11.80;;;;;;;22.22;80.56;100156.81;212875;1277;140324;-68
2022/08/24 08:13:38;;;;;;;16.80;12.20;;;;;;;22.32;80.54;100162.77;213455;1277;141794;-72
2022/08/24 08:18:47;;;;;;;20.90;12.30;;;;;;;22.45;80.32;100156.43;213301;1277;142437;-72
2022/08/24 08:24:15;;;;;;;18.00;13.20;;;;;;;22.54;79.90;100151.77;213235;1277;142368;-73
2022/08/24 08:29:25;;;;;;;16.20;12.40;;;;;;;22.69;79.94;100155.93;213476;1277;142182;-70
2022/08/24 08:34:30;;;;;;;14.60;12.90;;;;;;;22.76;79.53;100159.85;212936;1278;143324;-69
2022/08/24 08:39:35;;;;;;;15.60;12.10;;;;;;;22.81;79.16;100172.27;213514;1277;142046;-70
2022/08/24 08:45:00;;;;;;;14.70;13.10;;;;;;;22.90;79.01;100184.06;213367;1276;141835;-69
2022/08/24 08:50:24;;;;;;;15.40;11.60;;;;;;;22.95;79.09;100181.15;213335;1277;141108;-71
2022/08/24 08:55:55;;;;;;;13.80;12.40;;;;;;;23.09;78.58;100186.98;213527;1277;140150;-69
2022/08/24 09:01:22;;;;;;;24.30;11.90;;;;;;;23.24;78.43;100186.69;214514;1277;140773;-69
2022/08/24 09:06:43;;;;;;;13.40;12.10;;;;;;;23.45;78.32;100191.46;214521;1275;140894;-69
2022/08/24 09:12:10;;;;;;;12.90;11.60;;;;;;;23.71;77.97;100194.33;215769;1276;140593;-69
2022/08/24 09:17:35;;;;;;;12.10;10.90;;;;;;;23.76;77.29;100201.13;215943;1276;141779;-71
2022/08/24 09:22:42;;;;;;;16.10;11.30;;;;;;;23.94;77.28;100204.09;215605;1277;140779;-77
2022/08/24 09:28:12;;;;;;;13.00;11.70;;;;;;;24.01;76.85;100205.86;214315;1276;141634;-70
2022/08/24 09:33:23;;;;;;;19.80;13.80;;;;;;;24.05;76.51;100210.44;213437;1277;141256;-76
2022/08/24 09:38:46;;;;;;;13.50;9.80;;;;;;;24.10;76.40;100207.11;213099;1277;152687;-77
2022/08/24 09:44:35;;;;;;;14.20;12.90;;;;;;;24.27;76.23;100211.59;212985;1275;141520;-71
2022/08/24 09:50:10;;;;;;;15.10;12.70;;;;;;;24.39;75.92;100209.50;213050;1277;140422;-69
2022/08/24 09:55:33;;;;;;;18.00;12.30;;;;;;;24.36;75.33;100210.67;213192;1277;140413;-73
2022/08/24 10:00:48;;;;;;;16.00;12.30;;;;;;;24.38;75.00;100218.41;213298;1277;140032;-70
2022/08/24 10:06:03;;;;;;;19.70;13.90;;;;;;;24.34;74.89;100207.52;213464;1276;141250;-72
2022/08/24 10:11:33;;;;;;;17.10;13.80;;;;;;;24.56;74.99;100206.40;213315;1277;140778;-70
2022/08/24 10:17:08;;;;;;;13.80;12.00;;;;;;;24.83;74.72;100200.69;212563;1278;141871;-74
2022/08/24 10:22:32;;;;;;;18.70;11.60;;;;;;;24.97;74.25;100206.52;213422;1277;142700;-72
2022/08/24 10:27:48;;;;;;;16.40;12.80;;;;;;;24.78;73.68;100211.73;213327;1277;142499;-72
2022/08/24 10:33:14;;;;;;;17.90;12.30;;;;;;;24.61;73.63;100212.25;213057;1277;142329;-69
2022/08/24 10:44:32;;;;;;;19.30;12.60;;;;;;;24.74;73.42;100206.20;213438;1277;140798;-72
2022/08/24 10:49:36;;;;;;;18.20;14.20;;;;;;;24.90;73.68;100205.91;213350;1275;141800;-72
2022/08/24 10:54:40;;;;;;;19.90;14.00;;;;;;;25.11;73.18;100201.69;213631;1277;140475;-71
2022/08/24 10:59:53;;;;;;;19.60;15.10;;;;;;;25.35;72.94;100196.56;215175;1277;142337;-70
2022/08/24 11:05:04;;;;;;;14.50;13.10;;;;;;;25.54;72.36;100196.29;215664;1276;140632;-70
2022/08/24 11:10:24;;;;;;;24.10;15.70;;;;;;;25.74;71.58;100197.38;216030;1276;141326;-72
2022/08/24 11:15:32;;;;;;;20.00;14.20;;;;;;;26.02;71.07;100189.00;215814;1277;143210;-73
2022/08/24 11:20:45;;;;;;;19.90;14.20;;;;;;;26.20;70.84;100198.45;213424;1277;141320;-73
2022/08/24 11:26:01;;;;;;;26.50;15.90;;;;;;;26.26;70.51;100204.30;213676;1277;140819;-74
2022/08/24 11:31:10;;;;;;;;;;;;;;;26.23;70.09;100199.95;213215;1277;142423;-69
2022/08/24 11:36:24;;;;;;;21.90;14.70;;;;;;;26.04;69.77;100209.95;214072;1277;126740;-71
2022/08/24 11:41:34;;;;;;;20.50;15.50;;;;;;;25.89;69.68;100205.57;212997;1277;140448;-69
2022/08/24 11:46:45;;;;;;;23.90;16.00;;;;;;;26.14;69.86;100202.02;213611;1275;141150;-67
2022/08/24 11:51:55;;;;;;;23.20;17.40;;;;;;;26.53;69.68;100206.70;213251;1279;140280;-70
2022/08/24 11:57:33;;;;;;;30.50;19.30;;;;;;;26.55;69.19;100209.35;213423;1277;141528;-70
2022/08/24 12:03:07;;;;;;;23.40;19.70;;;;;;;26.66;68.74;100208.74;213228;1277;143604;-68
2022/08/24 12:08:33;;;;;;;30.00;20.60;;;;;;;26.84;68.40;100204.55;213237;1277;141513;-71
2022/08/24 12:13:57;;;;;;;27.00;21.10;;;;;;;27.05;68.17;100197.88;213214;1277;143095;-69
2022/08/24 12:19:19;;;;;;;36.40;22.00;;;;;;;27.09;67.87;100193.35;213148;1277;140397;-66
2022/08/24 12:24:38;;;;;;;26.30;20.60;;;;;;;27.12;67.75;100195.50;213151;1277;140206;-67
2022/08/24 12:29:59;;;;;;;35.70;21.00;;;;;;;27.20;67.44;100199.59;213412;1277;140924;-67
2022/08/24 12:35:23;;;;;;;40.80;22.30;;;;;;;27.27;67.23;100197.91;213500;1277;141877;-67
2022/08/24 12:40:38;;;;;;;35.20;21.90;;;;;;;27.32;67.02;100193.71;213008;1277;140893;-67
2022/08/24 12:45:46;;;;;;;29.30;19.30;;;;;;;27.41;66.66;100195.27;214653;1277;141006;-67
2022/08/24 12:51:20;;;;;;;20.50;18.40;;;;;;;27.48;66.40;100191.73;215810;1277;141137;-68
2022/08/24 12:57:01;;;;;;;34.10;19.60;;;;;;;27.62;66.31;100191.75;215796;1276;140967;-67
2022/08/24 13:02:09;;;;;;;22.00;19.60;;;;;;;27.68;65.87;100194.49;215783;1277;141115;-67
2022/08/24 13:07:37;;;;;;;22.40;18.70;;;;;;;27.72;65.89;100191.05;215821;1276;141365;-67
2022/08/24 13:12:42;;;;;;;26.90;19.30;;;;;;;27.73;65.50;100194.06;214829;1277;140110;-68
2022/08/24 13:17:46;;;;;;;20.50;16.40;;;;;;;27.69;65.50;100195.63;214323;1277;140677;-68
2022/08/24 13:23:01;;;;;;;19.50;16.80;;;;;;;27.64;65.11;100192.32;214151;1277;142426;-67
2022/08/24 13:28:26;;;;;;;28.30;15.90;;;;;;;27.62;65.23;100192.77;213917;1277;140708;-67
2022/08/24 13:33:45;;;;;;;25.10;15.90;;;;;;;27.60;64.71;100196.14;213517;1275;140355;-67
2022/08/24 13:38:58;;;;;;;20.60;16.10;;;;;;;27.56;64.83;100187.43;213022;1277;140284;-67
2022/08/24 13:44:20;;;;;;;23.30;14.70;;;;;;;27.49;64.43;100187.69;213529;1276;140087;-67
2022/08/24 13:49:41;;;;;;;22.70;15.10;;;;;;;27.44;64.86;100189.23;212388;1276;2783325;-69
2022/08/24 13:55:04;;;;;;;16.30;13.50;;;;;;;27.42;64.88;100184.61;212937;1277;142089;-68
2022/08/24 14:00:13;;;;;;;29.30;14.50;;;;;;;27.44;64.78;100180.02;214064;1277;141824;-69
2022/08/24 14:05:37;;;;;;;22.70;13.00;;;;;;;27.42;64.91;100177.11;213868;1275;140014;-66
2022/08/24 14:11:02;;;;;;;24.60;13.00;;;;;;;27.40;64.90;100174.00;212962;1277;141896;-69
2022/08/24 14:22:09;;;;;;;24.60;11.20;;;;;;;27.40;65.31;100160.13;213043;1277;142071;-68
2022/08/24 14:27:37;;;;;;;18.80;9.30;;;;;;;27.42;65.19;100150.44;213557;1277;142108;-66
2022/08/24 14:32:44;;;;;;;17.60;10.40;;;;;;;27.38;65.07;100152.85;214128;1277;141043;-65
2022/08/24 14:38:08;;;;;;;16.00;8.10;;;;;;;27.35;65.00;100158.87;215628;1276;142167;-66
2022/08/24 14:43:42;;;;;;;19.80;8.00;;;;;;;27.33;65.03;100157.27;215751;1277;141673;-66
2022/08/24 14:49:14;;;;;;;24.40;8.70;;;;;;;27.32;65.38;100153.81;213381;1277;141970;-66
2022/08/24 14:55:03;;;;;;;17.90;7.80;;;;;;;27.36;65.39;100152.33;215616;1277;141266;-68
2022/08/24 15:00:33;;;;;;;23.50;9.00;;;;;;;27.39;65.50;100151.42;215697;1276;142152;-73
2022/08/24 15:05:49;;;;;;;26.50;7.30;;;;;;;27.40;65.52;100149.20;215467;1276;141005;-71
2022/08/24 15:11:17;;;;;;;21.70;8.20;;;;;;;27.37;65.31;100155.73;214803;1277;140374;-69
2022/08/24 15:16:26;;;;;;;21.00;8.20;;;;;;;27.35;65.37;100160.65;213662;1277;142087;-68
2022/08/24 15:21:36;;;;;;;25.80;8.80;;;;;;;27.37;65.06;100162.85;214246;1276;140519;-67
2022/08/24 15:27:09;;;;;;;17.80;7.90;;;;;;;27.26;65.12;100162.76;214213;1277;141908;-66
2022/08/24 15:32:14;;;;;;;28.20;8.10;;;;;;;27.13;65.54;100158.91;212617;1277;141637;-69
2022/08/24 15:37:38;;;;;;;20.60;8.30;;;;;;;26.95;65.63;100156.12;213579;1277;143336;-69
2022/08/24 15:42:43;;;;;;;16.50;8.00;;;;;;;26.81;65.88;100160.04;213308;1277;140221;-68
2022/08/24 15:47:51;;;;;;;36.90;7.20;;;;;;;26.76;66.27;100165.88;212983;1277;141920;-66
2022/08/24 15:53:05;;;;;;;17.50;7.40;;;;;;;26.68;66.28;100166.71;213266;1277;140317;-66
2022/08/24 15:58:17;;;;;;;22.60;7.90;;;;;;;26.63;66.61;100162.00;213395;1277;140141;-68
2022/08/24 16:03:44;;;;;;;22.80;8.10;;;;;;;26.57;66.91;100155.35;214231;1276;140956;-69
2022/08/24 16:09:07;;;;;;;20.80;8.60;;;;;;;26.46;67.26;100164.79;215336;1277;141095;-69
2022/08/24 16:14:22;;;;;;;11.70;7.20;;;;;;;26.50;67.35;100184.39;213054;1277;152281;-68
2022/08/24 16:19:34;;;;;;;29.60;7.70;;;;;;;26.49;67.23;100182.71;213266;1277;140640;-68
2022/08/24 16:24:41;;;;;;;18.60;7.80;;;;;;;26.44;67.23;100184.92;213730;1276;140513;-68
2022/08/24 16:29:51;;;;;;;29.80;6.80;;;;;;;26.39;67.24;100187.69;214636;1277;140711;-68
2022/08/24 16:35:07;;;;;;;18.40;7.60;;;;;;;26.36;67.53;100191.93;215712;1277;140819;-66
2022/08/24 16:40:11;;;;;;;16.80;7.00;;;;;;;26.35;67.52;100198.30;215674;1277;142680;-66
2022/08/24 16:45:19;;;;;;;19.00;7.60;;;;;;;26.32;67.84;100203.40;215750;1277;140672;-68
2022/08/24 16:50:22;;;;;;;16.40;7.00;;;;;;;26.24;68.27;100206.71;215849;1277;139864;-69
2022/08/24 16:55:29;;;;;;;23.30;7.70;;;;;;;26.14;68.54;100206.80;215718;1276;140978;-70
2022/08/24 17:00:33;;;;;;;31.50;8.10;;;;;;;26.06;68.89;100210.03;214706;1276;143520;-67
2022/08/24 17:05:36;;;;;;;19.60;8.10;;;;;;;25.98;69.12;100211.64;213877;1277;141838;-69
2022/08/24 17:10:42;;;;;;;28.00;9.00;;;;;;;25.87;69.34;100213.38;214029;1277;140551;-70
2022/08/24 17:15:46;;;;;;;20.70;7.20;;;;;;;25.74;69.50;100219.50;213471;1277;141713;-66
2022/08/24 17:20:55;;;;;;;34.50;9.10;;;;;;;25.58;69.76;100215.11;213622;1276;140673;-67
2022/08/24 17:26:10;;;;;;;20.80;7.30;;;;;;;25.44;70.08;100218.30;213017;1277;140893;-67
2022/08/24 17:31:24;;;;;;;16.60;7.40;;;;;;;25.30;70.28;100214.18;213642;1277;139944;-68
2022/08/24 17:36:28;;;;;;;26.60;8.40;;;;;;;25.12;70.75;100213.43;213433;1277;140832;-68
2022/08/24 17:41:34;;;;;;;12.80;7.20;;;;;;;24.95;70.96;100209.08;213256;1277;141637;-67
2022/08/24 17:46:39;;;;;;;12.20;7.50;;;;;;;24.79;71.18;100212.21;214175;1276;140768;-67
2022/08/24 17:51:43;;;;;;;25.20;8.00;;;;;;;24.62;71.36;100215.34;213269;1277;142197;-68
2022/08/24 17:56:49;;;;;;;17.10;8.80;;;;;;;24.47;71.95;100211.60;214847;1276;141470;-68
2022/08/24 18:02:00;;;;;;;29.00;8.90;;;;;;;24.34;72.18;100213.78;214907;1275;141027;-67
2022/08/24 18:07:08;;;;;;;17.20;7.80;;;;;;;24.24;72.24;100214.48;213664;1277;141059;-68
2022/08/24 18:12:19;;;;;;;13.70;8.00;;;;;;;24.13;72.27;100218.67;212824;1277;140157;-68
2022/08/24 18:17:32;;;;;;;17.20;7.90;;;;;;;24.01;72.92;100224.29;212875;1277;140531;-68
2022/08/24 18:22:43;;;;;;;15.70;7.60;;;;;;;23.85;72.81;100230.25;213889;1277;141465;-67
2022/08/24 18:27:47;;;;;;;16.70;7.00;;;;;;;23.74;73.27;100234.61;215073;1277;140773;-67
2022/08/24 18:32:51;;;;;;;24.30;7.60;;;;;;;23.70;73.54;100236.23;214492;1276;142077;-67
2022/08/24 18:37:54;;;;;;;19.40;7.90;;;;;;;23.66;73.63;100233.38;214106;1276;141136;-68
2022/08/24 18:42:58;;;;;;;16.00;6.80;;;;;;;23.61;73.94;100241.67;215752;1276;141547;-67
2022/08/24 18:48:03;;;;;;;13.40;6.50;;;;;;;23.45;73.74;100272.92;215760;1276;141656;-69
2022/08/24 18:53:12;;;;;;;10.10;3.70;;;;;;;22.80;72.64;100307.91;215756;1277;142939;-67
2022/08/24 18:58:17;;;;;;;5.50;2.30;;;;;;;22.52;72.38;100301.71;215425;1277;162265;-67
2022/08/24 19:03:24;;;;;;;16.90;3.50;;;;;;;22.28;71.91;100308.86;214135;1277;140478;-66
2022/08/24 19:08:30;;;;;;;4.60;2.70;;;;;;;22.03;72.15;100316.66;213459;1276;143120;-67
2022/08/24 19:13:37;;;;;;;4.60;2.20;;;;;;;21.83;72.38;100314.80;213275;1276;141891;-68
2022/08/24 19:18:48;;;;;;;6.60;2.60;;;;;;;21.72;72.97;100320.06;215007;1276;142915;-68
2022/08/24 19:23:55;;;;;;;8.80;2.50;;;;;;;21.48;73.34;100327.02;215493;1275;141680;-68
2022/08/24 19:28:59;;;;;;;9.50;2.70;;;;;;;21.24;73.92;100342.04;214649;1277;141193;-68
2022/08/24 19:34:04;;;;;;;14.60;2.90;;;;;;;21.15;74.73;100337.40;214549;1277;141351;-67
2022/08/24 19:39:10;;;;;;;16.70;2.70;;;;;;;21.21;75.16;100328.69;214221;1276;141383;-65
2022/08/24 19:49:56;;;;;;;11.00;2.50;;;;;;;21.28;75.77;100298.46;213481;1277;140331;-68
2022/08/24 19:55:06;;;;;;;2.80;2.20;;;;;;;21.18;75.66;100302.57;213456;1277;139799;-68
2022/08/24 20:00:23;;;;;;;7.50;2.70;;;;;;;21.07;75.82;100314.73;213166;1277;141055;-67
2022/08/24 20:05:28;;;;;;;9.80;2.90;;;;;;;21.04;76.35;100326.16;213473;1277;141204;-66
2022/08/24 20:10:33;;;;;;;3.90;2.90;;;;;;;21.07;76.69;100332.27;214166;1277;141862;-65
2022/08/24 20:15:40;;;;;;;7.30;3.20;;;;;;;21.13;76.95;100327.19;213192;1277;142484;-68
2022/08/24 20:20:45;;;;;;;5.80;2.60;;;;;;;21.14;76.93;100313.39;212992;1277;140095;-68
2022/08/24 20:25:53;;;;;;;3.90;2.30;;;;;;;21.07;76.83;100291.77;214841;1277;140819;-68
2022/08/24 20:30:57;;;;;;;4.90;3.10;;;;;;;20.99;76.92;100283.02;214311;1277;141309;-68
2022/08/24 20:36:03;;;;;;;2.80;2.20;;;;;;;20.93;76.93;100281.04;215492;1277;154128;-68
2022/08/24 20:41:06;;;;;;;3.90;1.50;;;;;;;20.89;77.06;100280.80;215576;1277;141218;-67
2022/08/24 20:46:11;;;;;;;7.40;2.30;;;;;;;20.90;77.07;100264.16;215705;1277;141333;-68
2022/08/24 20:51:15;;;;;;;7.40;2.40;;;;;;;20.91;77.23;100257.48;215418;1277;140671;-66
2022/08/24 20:56:36;;;;;;;4.50;2.40;;;;;;;20.90;77.38;100250.27;215679;1277;139860;-66
2022/08/24 21:01:44;;;;;;;2.40;1.50;;;;;;;20.94;77.47;100255.98;215489;1277;140387;-68
2022/08/24 21:06:48;;;;;;;7.20;2.80;;;;;;;20.94;77.38;100254.02;212594;1277;141700;-67
2022/08/24 21:11:54;;;;;;;16.10;2.60;;;;;;;20.86;77.25;100263.60;213773;1277;142890;-68
2022/08/24 21:16:58;;;;;;;5.20;1.90;;;;;;;20.76;77.28;100261.30;213603;1274;153579;-67
2022/08/24 21:22:02;;;;;;;3.00;2.10;;;;;;;20.65;77.48;100269.45;214829;1277;141588;-68
2022/08/24 21:27:08;;;;;;;3.80;2.20;;;;;;;20.60;78.12;100288.25;213534;1276;141477;-67
2022/08/24 21:37:33;;;;;;;7.40;2.80;;;;;;;20.55;78.07;100272.15;215168;1277;141328;-66
2022/08/24 21:42:38;;;;;;;8.30;2.30;;;;;;;20.57;78.46;100268.02;213959;1277;141179;-67
2022/08/24 21:47:42;;;;;;;7.90;2.10;;;;;;;20.56;78.46;100266.73;213301;1276;142609;-66
2022/08/24 21:52:46;;;;;;;3.30;2.50;;;;;;;20.49;78.54;100260.73;213563;1277;142326;-66
2022/08/24 21:57:56;;;;;;;6.50;2.70;;;;;;;20.47;78.76;100260.83;213743;1276;141681;-68
2022/08/24 22:03:02;;;;;;;6.80;2.50;;;;;;;20.43;78.83;100259.79;213061;1277;143894;-67
2022/08/24 22:08:07;;;;;;;8.00;2.50;;;;;;;20.38;78.87;100260.21;213041;1277;141798;-67
2022/08/24 22:13:11;;;;;;;2.90;2.70;;;;;;;20.29;78.92;100253.71;213501;1276;141620;-67
2022/08/24 22:18:16;;;;;;;14.40;3.10;;;;;;;20.24;79.08;100249.97;213964;1277;142018;-67
2022/08/24 22:23:22;;;;;;;3.40;2.30;;;;;;;20.19;79.03;100243.41;215095;1276;143638;-68
2022/08/24 22:28:26;;;;;;;3.30;2.70;;;;;;;20.08;78.94;100232.70;214266;1276;141814;-68
2022/08/24 22:33:31;;;;;;;8.60;3.30;;;;;;;20.08;79.27;100225.98;215720;1276;142703;-68
2022/08/24 22:38:35;;;;;;;4.40;2.20;;;;;;;20.13;79.33;100226.98;215927;1276;141695;-67
2022/08/24 22:49:03;;;;;;;6.60;3.00;;;;;;;20.08;79.10;100218.52;215900;1276;141788;-67
2022/08/24 22:54:08;;;;;;;3.60;2.70;;;;;;;20.04;79.01;100215.74;215824;1276;140847;-69
2022/08/24 22:59:17;;;;;;;6.80;3.10;;;;;;;19.95;78.92;100204.89;214815;1277;140782;-67
2022/08/24 23:04:29;;;;;;;4.70;2.50;;;;;;;19.94;79.09;100195.54;213818;1276;141037;-67
2022/08/24 23:09:35;;;;;;;9.00;3.20;;;;;;;19.90;79.11;100195.20;213194;1277;140856;-67
2022/08/24 23:14:49;;;;;;;6.20;3.10;;;;;;;19.85;79.42;100190.65;213721;1277;140377;-67
2022/08/24 23:19:59;;;;;;;4.70;2.80;;;;;;;19.79;79.56;100195.59;213170;1276;141179;-67
2022/08/24 23:25:05;;;;;;;7.50;3.60;;;;;;;19.72;79.34;100196.83;212926;1277;140834;-69
2022/08/24 23:30:12;;;;;;;7.20;3.50;;;;;;;19.59;79.23;100190.54;213371;1277;141816;-65
2022/08/24 23:35:19;;;;;;;9.30;2.90;;;;;;;19.53;79.43;100187.70;213165;1277;141856;-67
2022/08/24 23:40:22;;;;;;;;;;;;;;;19.45;79.21;100190.33;213091;1277;140728;-69
2022/08/24 23:45:26;;;;;;;4.20;3.00;;;;;;;19.33;79.83;100196.34;214040;1277;127090;-66
2022/08/24 23:50:31;;;;;;;4.70;2.90;;;;;;;19.32;80.00;100186.52;213114;1277;140856;-66